createdAt,value
2018-12-18T00:00:47.249Z,18.91
2018-12-18T00:03:14.821Z,18.89
2018-12-18T00:05:42.323Z,18.90
2018-12-18T00:08:09.898Z,18.90
2018-12-18T00:10:42.857Z,18.89
2018-12-18T00:13:10.293Z,18.89
2018-12-18T00:15:37.970Z,18.89
2018-12-18T00:18:05.543Z,18.88
2018-12-18T00:20:32.941Z,18.88
2018-12-18T00:23:00.352Z,18.88
2018-12-18T00:25:27.754Z,18.89
2018-12-18T00:27:55.173Z,18.90
2018-12-18T00:30:23.502Z,18.89
2018-12-18T00:32:50.897Z,18.91
2018-12-18T00:35:18.311Z,18.91
2018-12-18T00:37:45.709Z,18.88
2018-12-18T00:40:13.158Z,18.91
2018-12-18T00:42:40.562Z,18.89
2018-12-18T00:45:07.982Z,18.90
2018-12-18T00:47:35.465Z,18.89
2018-12-18T00:50:02.897Z,18.88
2018-12-18T00:52:30.298Z,18.87
2018-12-18T00:54:57.691Z,18.87
2018-12-18T00:57:26.155Z,18.86
2018-12-18T00:59:53.553Z,18.86
2018-12-18T01:02:20.954Z,18.86
2018-12-18T01:04:48.350Z,18.86
2018-12-18T01:07:15.877Z,18.86
2018-12-18T01:09:43.262Z,18.87
2018-12-18T01:12:10.669Z,18.86
2018-12-18T01:14:38.062Z,18.87
2018-12-18T01:17:05.503Z,18.87
2018-12-18T01:19:32.971Z,18.87
2018-12-18T01:22:00.546Z,18.87
2018-12-18T01:24:28.013Z,18.86
2018-12-18T01:26:55.407Z,18.88
2018-12-18T01:29:22.806Z,18.88
2018-12-18T01:31:50.254Z,18.87
2018-12-18T01:34:17.658Z,18.87
2018-12-18T01:36:45.074Z,18.86
2018-12-18T01:39:14.545Z,18.87
2018-12-18T01:41:41.941Z,18.87
2018-12-18T01:44:09.337Z,18.85
2018-12-18T01:46:36.750Z,18.85
2018-12-18T01:49:04.203Z,18.85
2018-12-18T01:51:31.609Z,18.85
2018-12-18T01:53:59.089Z,18.85
2018-12-18T01:56:26.482Z,18.85
2018-12-18T01:58:53.890Z,18.85
2018-12-18T02:01:21.273Z,18.85
2018-12-18T02:03:48.773Z,18.84
2018-12-18T02:06:16.165Z,18.83
2018-12-18T02:08:44.378Z,18.82
2018-12-18T02:11:11.868Z,18.83
2018-12-18T02:13:39.269Z,18.83
2018-12-18T02:16:06.680Z,18.84
2018-12-18T02:18:34.090Z,18.84
2018-12-18T02:21:01.483Z,18.83
2018-12-18T02:23:29.006Z,18.84
2018-12-18T02:25:56.481Z,18.84
2018-12-18T02:28:23.879Z,18.86
2018-12-18T02:30:51.277Z,18.86
2018-12-18T02:33:18.808Z,18.86
2018-12-18T02:35:46.217Z,18.84
2018-12-18T02:38:13.595Z,18.84
2018-12-18T02:40:41.015Z,18.86
2018-12-18T02:43:09.467Z,18.86
2018-12-18T02:45:36.843Z,18.85
2018-12-18T02:48:04.367Z,18.85
2018-12-18T02:50:31.771Z,18.84
2018-12-18T02:52:59.186Z,18.83
2018-12-18T02:55:26.579Z,18.83
2018-12-18T02:57:53.981Z,18.83
2018-12-18T03:00:21.545Z,18.84
2018-12-18T03:02:49.006Z,18.86
2018-12-18T03:05:16.414Z,18.85
2018-12-18T03:07:43.796Z,18.85
2018-12-18T03:10:11.280Z,18.83
2018-12-18T03:12:38.736Z,18.82
2018-12-18T03:15:06.132Z,18.83
2018-12-18T03:17:33.518Z,18.86
2018-12-18T03:20:00.980Z,18.85
2018-12-18T03:22:28.397Z,18.85
2018-12-18T03:24:55.809Z,18.85
2018-12-18T03:27:23.240Z,18.87
2018-12-18T03:29:50.635Z,18.86
2018-12-18T03:32:22.400Z,18.87
2018-12-18T03:34:49.776Z,18.88
2018-12-18T03:37:17.169Z,18.86
2018-12-18T03:39:44.562Z,18.87
2018-12-18T03:42:11.941Z,18.86
2018-12-18T03:44:39.389Z,18.87
2018-12-18T03:47:06.768Z,18.71
2018-12-18T03:49:34.164Z,18.86
2018-12-18T03:52:01.581Z,18.85
2018-12-18T03:54:29.017Z,18.85
2018-12-18T03:56:56.507Z,18.86
2018-12-18T03:59:23.906Z,18.85
2018-12-18T04:01:51.330Z,18.84
2018-12-18T04:04:18.733Z,18.83
2018-12-18T04:06:46.116Z,18.82
2018-12-18T04:09:13.546Z,18.82
2018-12-18T04:11:46.507Z,18.82
2018-12-18T04:14:13.898Z,18.80
2018-12-18T04:16:41.271Z,18.80
2018-12-18T04:19:08.715Z,18.82
2018-12-18T04:21:36.108Z,18.82
2018-12-18T04:24:04.529Z,18.83
2018-12-18T04:26:31.928Z,18.81
2018-12-18T04:29:00.143Z,18.81
2018-12-18T04:31:27.534Z,18.80
2018-12-18T04:33:54.982Z,18.81
2018-12-18T04:36:22.395Z,18.81
2018-12-18T04:38:49.780Z,18.81
2018-12-18T04:41:17.170Z,18.82
2018-12-18T04:43:44.598Z,18.82
2018-12-18T04:46:11.979Z,18.82
2018-12-18T04:48:39.385Z,18.81
2018-12-18T04:51:06.866Z,18.81
2018-12-18T04:53:34.249Z,18.83
2018-12-18T04:56:01.689Z,18.84
2018-12-18T04:58:29.097Z,18.84
2018-12-18T05:00:56.513Z,18.85
2018-12-18T05:03:23.921Z,18.85
2018-12-18T05:05:52.333Z,18.85
2018-12-18T05:08:19.773Z,18.85
2018-12-18T05:10:47.182Z,18.84
2018-12-18T05:13:14.611Z,18.85
2018-12-18T05:15:42.022Z,18.85
2018-12-18T05:18:10.436Z,18.85
2018-12-18T05:20:37.861Z,18.84
2018-12-18T05:23:05.259Z,18.83
2018-12-18T05:25:32.678Z,18.82
2018-12-18T05:28:00.077Z,18.82
2018-12-18T05:30:27.473Z,18.82
2018-12-18T05:32:54.882Z,18.81
2018-12-18T05:35:22.319Z,18.82
2018-12-18T05:37:49.726Z,18.82
2018-12-18T05:40:18.176Z,18.84
2018-12-18T05:42:45.616Z,18.83
2018-12-18T05:45:13.046Z,18.84
2018-12-18T05:47:40.445Z,18.83
2018-12-18T05:50:08.005Z,18.85
2018-12-18T05:52:35.504Z,18.85
2018-12-18T05:55:03.480Z,18.85
2018-12-18T05:57:30.946Z,18.88
2018-12-18T05:59:58.370Z,18.85
2018-12-18T06:02:25.815Z,18.84
2018-12-18T06:04:54.304Z,18.84
2018-12-18T06:07:22.936Z,18.86
2018-12-18T06:09:50.998Z,18.85
2018-12-18T06:12:18.962Z,18.85
2018-12-18T06:14:46.343Z,18.86
2018-12-18T06:17:13.733Z,18.86
2018-12-18T06:19:41.141Z,18.84
2018-12-18T06:22:08.553Z,18.84
2018-12-18T06:24:37.008Z,18.83
2018-12-18T06:27:04.394Z,18.82
2018-12-18T06:29:31.796Z,18.84
2018-12-18T06:31:59.269Z,18.80
2018-12-18T06:34:26.734Z,18.82
2018-12-18T06:36:54.145Z,18.82
2018-12-18T06:39:21.730Z,18.80
2018-12-18T06:41:49.133Z,18.79
2018-12-18T06:44:16.509Z,18.80
2018-12-18T06:46:43.909Z,18.86
2018-12-18T06:49:11.302Z,18.83
2018-12-18T06:54:22.991Z,18.74
2018-12-18T06:56:50.376Z,18.80
2018-12-18T06:59:17.776Z,18.81
2018-12-18T07:01:45.191Z,18.81
2018-12-18T07:04:12.582Z,18.80
2018-12-18T07:06:39.981Z,18.82
2018-12-18T07:09:08.762Z,18.80
2018-12-18T07:11:36.137Z,18.84
2018-12-18T07:14:03.621Z,18.86
2018-12-18T07:16:31.022Z,18.82
2018-12-18T07:18:58.417Z,18.86
2018-12-18T07:21:25.800Z,18.90
2018-12-18T07:23:53.888Z,18.90
2018-12-18T07:26:21.269Z,18.92
2018-12-18T07:28:49.979Z,18.91
2018-12-18T07:31:17.574Z,18.90
2018-12-18T07:33:44.970Z,18.91
2018-12-18T07:36:12.362Z,18.91
2018-12-18T07:38:39.751Z,18.90
2018-12-18T07:41:07.789Z,18.90
2018-12-18T07:43:35.230Z,18.90
2018-12-18T07:46:02.630Z,18.89
2018-12-18T07:48:30.021Z,18.90
2018-12-18T07:50:57.403Z,18.88
2018-12-18T07:53:24.814Z,18.86
2018-12-18T07:55:52.220Z,18.85
2018-12-18T07:58:19.602Z,18.85
2018-12-18T08:00:46.998Z,18.84
2018-12-18T08:03:14.409Z,18.84
2018-12-18T08:05:41.801Z,18.84
2018-12-18T08:08:09.186Z,18.83
2018-12-18T08:10:36.596Z,18.83
2018-12-18T08:13:03.985Z,18.82
2018-12-18T08:15:31.415Z,18.81
2018-12-18T08:17:58.822Z,18.82
2018-12-18T08:20:26.209Z,18.82
2018-12-18T08:22:53.592Z,18.81
2018-12-18T08:25:21.810Z,18.81
2018-12-18T08:27:49.207Z,18.81
2018-12-18T08:30:16.626Z,18.81
2018-12-18T08:32:44.028Z,18.79
2018-12-18T08:35:11.425Z,18.79
2018-12-18T08:37:39.321Z,18.79
2018-12-18T08:40:07.062Z,18.79
2018-12-18T08:42:34.446Z,18.79
2018-12-18T08:45:01.846Z,18.80
2018-12-18T08:47:29.251Z,18.82
2018-12-18T08:49:56.709Z,18.85
2018-12-18T08:52:24.106Z,18.86
2018-12-18T08:54:51.502Z,18.86
2018-12-18T08:57:18.930Z,18.86
2018-12-18T08:59:46.325Z,18.88
2018-12-18T09:02:13.745Z,18.90
2018-12-18T09:04:41.137Z,18.90
2018-12-18T09:07:08.549Z,18.91
2018-12-18T09:09:35.933Z,18.91
2018-12-18T09:12:03.322Z,18.89
2018-12-18T09:14:30.701Z,18.90
2018-12-18T09:17:02.601Z,18.89
2018-12-18T09:19:30.372Z,18.90
2018-12-18T09:21:57.762Z,18.90
2018-12-18T09:24:25.161Z,18.89
2018-12-18T09:26:53.550Z,18.89
2018-12-18T09:29:20.954Z,18.90
2018-12-18T09:31:48.358Z,18.88
2018-12-18T09:34:15.830Z,18.86
2018-12-18T09:36:43.226Z,18.87
2018-12-18T09:39:16.007Z,18.87
2018-12-18T09:41:46.832Z,18.85
2018-12-18T09:44:17.962Z,18.83
2018-12-18T09:46:45.484Z,18.83
2018-12-18T09:49:12.866Z,18.83
2018-12-18T09:51:40.334Z,18.81
2018-12-18T09:54:07.735Z,18.82
2018-12-18T09:56:40.534Z,18.80
2018-12-18T09:59:07.929Z,18.81
2018-12-18T10:01:35.338Z,18.80
2018-12-18T10:04:02.754Z,18.80
2018-12-18T10:06:30.143Z,18.81
2018-12-18T10:08:57.517Z,18.79
2018-12-18T10:11:24.909Z,18.81
2018-12-18T10:13:52.317Z,18.82
2018-12-18T10:16:19.724Z,18.80
2018-12-18T10:18:47.119Z,18.79
2018-12-18T10:21:14.521Z,18.76
2018-12-18T10:23:41.924Z,18.74
2018-12-18T10:26:09.325Z,18.72
2018-12-18T10:28:36.722Z,18.75
2018-12-18T10:31:04.125Z,18.79
2018-12-18T10:33:32.535Z,18.79
2018-12-18T10:36:02.938Z,18.81
2018-12-18T10:38:29.585Z,18.80
2018-12-18T10:40:57.043Z,18.84
2018-12-18T10:43:24.434Z,18.84
2018-12-18T10:45:51.817Z,18.83
2018-12-18T10:48:19.227Z,18.84
2018-12-18T10:50:46.667Z,18.76
2018-12-18T10:53:14.065Z,18.69
2018-12-18T10:55:41.450Z,18.78
2018-12-18T10:58:08.857Z,18.79
2018-12-18T11:00:41.789Z,18.81
2018-12-18T11:03:09.187Z,18.80
2018-12-18T11:05:36.677Z,18.79
2018-12-18T11:08:04.065Z,18.78
2018-12-18T11:10:32.294Z,18.79
2018-12-18T11:13:05.258Z,18.80
2018-12-18T11:15:32.649Z,18.79
2018-12-18T11:18:00.854Z,18.79
2018-12-18T11:20:28.261Z,18.80
2018-12-18T11:22:55.655Z,18.79
2018-12-18T11:25:23.053Z,18.78
2018-12-18T11:27:50.445Z,18.79
2018-12-18T11:30:17.849Z,18.79
2018-12-18T11:32:45.229Z,18.80
2018-12-18T11:35:13.358Z,18.77
2018-12-18T11:37:40.737Z,18.80
2018-12-18T11:40:08.823Z,18.77
2018-12-18T11:42:36.209Z,18.77
2018-12-18T11:45:03.610Z,18.79
2018-12-18T11:47:31.006Z,18.79
2018-12-18T11:49:58.411Z,18.79
2018-12-18T11:52:25.909Z,18.79
2018-12-18T11:54:53.280Z,18.78
2018-12-18T11:57:20.665Z,18.79
2018-12-18T11:59:48.057Z,18.79
2018-12-18T12:02:15.442Z,18.80
2018-12-18T12:04:42.830Z,18.81
2018-12-18T12:07:11.143Z,18.81
2018-12-18T12:09:38.542Z,18.77
2018-12-18T12:12:06.101Z,18.80
2018-12-18T12:14:33.550Z,18.81
2018-12-18T12:17:01.660Z,18.80
2018-12-18T12:19:29.312Z,18.80
2018-12-18T12:21:56.697Z,18.79
2018-12-18T12:24:24.091Z,18.80
2018-12-18T12:26:53.470Z,18.79
2018-12-18T12:29:20.854Z,18.79
2018-12-18T12:31:55.026Z,18.80
2018-12-18T12:34:22.405Z,18.80
2018-12-18T12:36:50.865Z,18.81
2018-12-18T12:39:18.258Z,18.80
2018-12-18T12:41:45.669Z,18.81
2018-12-18T12:44:13.039Z,18.84
2018-12-18T12:46:40.440Z,18.85
2018-12-18T12:49:09.885Z,18.85
2018-12-18T12:51:39.109Z,18.73
2018-12-18T12:54:06.495Z,18.87
2018-12-18T12:56:33.910Z,18.88
2018-12-18T12:59:01.298Z,18.87
2018-12-18T13:01:28.696Z,18.85
2018-12-18T13:03:56.089Z,18.86
2018-12-18T13:06:23.490Z,18.87
2018-12-18T13:08:50.890Z,18.84
2018-12-18T13:11:18.277Z,18.84
2018-12-18T13:13:45.705Z,18.83
2018-12-18T13:16:13.096Z,18.83
2018-12-18T13:18:40.490Z,18.82
2018-12-18T13:21:07.886Z,18.82
2018-12-18T13:23:35.286Z,18.82
2018-12-18T13:26:02.673Z,18.83
2018-12-18T13:28:30.083Z,18.81
2018-12-18T13:30:57.458Z,18.81
2018-12-18T13:33:24.864Z,18.80
2018-12-18T13:35:53.146Z,18.81
2018-12-18T13:38:20.603Z,18.80
2018-12-18T13:40:51.109Z,18.80
2018-12-18T13:43:18.498Z,18.80
2018-12-18T13:45:45.906Z,18.81
2018-12-18T13:48:13.329Z,18.79
2018-12-18T13:53:14.594Z,18.79
2018-12-18T13:55:41.994Z,18.81
2018-12-18T13:58:09.513Z,18.83
2018-12-18T14:00:36.931Z,18.82
2018-12-18T14:03:04.320Z,18.82
2018-12-18T14:05:31.802Z,18.84
2018-12-18T14:07:59.197Z,18.83
2018-12-18T14:10:26.570Z,18.87
2018-12-18T14:12:56.873Z,18.85
2018-12-18T14:15:24.309Z,18.84
2018-12-18T14:17:51.703Z,18.85
2018-12-18T14:20:19.090Z,18.85
2018-12-18T14:22:46.491Z,18.86
2018-12-18T14:25:13.926Z,18.86
2018-12-18T14:27:41.307Z,18.85
2018-12-18T14:30:08.709Z,18.86
2018-12-18T14:32:36.102Z,18.86
2018-12-18T14:35:03.485Z,18.85
2018-12-18T14:37:30.878Z,18.85
2018-12-18T14:39:59.274Z,18.83
2018-12-18T14:42:26.664Z,18.85
2018-12-18T14:44:54.050Z,18.83
2018-12-18T14:47:21.437Z,18.84
2018-12-18T14:49:48.858Z,18.81
2018-12-18T14:52:16.258Z,18.83
2018-12-18T14:54:43.651Z,18.74
2018-12-18T14:57:11.033Z,18.78
2018-12-18T14:59:38.608Z,18.79
2018-12-18T15:02:06.002Z,18.77
2018-12-18T15:04:33.410Z,18.78
2018-12-18T15:07:03.064Z,18.78
2018-12-18T15:09:30.782Z,18.77
2018-12-18T15:11:58.178Z,18.79
2018-12-18T15:14:26.594Z,18.81
2018-12-18T15:16:53.987Z,18.82
2018-12-18T15:19:21.397Z,18.82
2018-12-18T15:21:48.789Z,18.83
2018-12-18T15:24:16.165Z,18.82
2018-12-18T15:26:43.569Z,18.83
2018-12-18T15:29:10.986Z,18.83
2018-12-18T15:31:38.373Z,18.85
2018-12-18T15:34:05.769Z,18.85
2018-12-18T15:36:33.181Z,18.84
2018-12-18T15:39:00.589Z,18.85
2018-12-18T15:41:27.989Z,18.86
2018-12-18T15:43:55.401Z,18.84
2018-12-18T15:46:22.793Z,18.85
2018-12-18T15:48:50.193Z,18.85
2018-12-18T15:51:17.600Z,18.84
2018-12-18T15:53:44.997Z,18.84
2018-12-18T15:56:12.429Z,18.85
2018-12-18T15:58:39.810Z,18.87
2018-12-18T16:01:07.253Z,18.85
2018-12-18T16:03:34.641Z,18.85
2018-12-18T16:06:02.057Z,18.85
2018-12-18T16:08:29.462Z,18.84
2018-12-18T16:10:56.897Z,18.82
2018-12-18T16:13:24.290Z,18.82
2018-12-18T16:15:51.694Z,18.82
2018-12-18T16:18:19.095Z,18.80
2018-12-18T16:20:46.517Z,18.80
2018-12-18T16:23:13.913Z,18.80
2018-12-18T16:25:41.305Z,18.80
2018-12-18T16:28:08.689Z,18.80
2018-12-18T16:30:36.110Z,18.81
2018-12-18T16:33:03.507Z,18.76
2018-12-18T16:35:30.903Z,18.76
2018-12-18T16:37:58.298Z,18.75
2018-12-18T16:40:25.676Z,18.68
2018-12-18T16:42:53.108Z,18.70
2018-12-18T16:45:20.494Z,18.68
2018-12-18T16:47:47.930Z,18.73
2018-12-18T16:50:15.324Z,18.76
2018-12-18T16:52:42.792Z,18.72
2018-12-18T16:55:13.723Z,18.63
2018-12-18T16:57:41.124Z,18.53
2018-12-18T17:03:08.676Z,18.37
2018-12-18T17:05:36.082Z,18.34
2018-12-18T17:08:03.490Z,18.32
2018-12-18T17:10:37.028Z,18.31
2018-12-18T17:13:04.414Z,18.12
2018-12-18T17:15:31.894Z,18.28
2018-12-18T17:17:59.355Z,18.27
2018-12-18T17:20:26.799Z,18.31
2018-12-18T17:22:55.129Z,18.28
2018-12-18T17:25:22.545Z,18.24
2018-12-18T17:27:49.986Z,18.23
2018-12-18T17:30:17.436Z,18.37
2018-12-18T17:40:01.593Z,18.25
2018-12-18T17:42:29.007Z,18.25
2018-12-18T17:49:47.538Z,18.30
2018-12-18T18:04:22.680Z,18.35
2018-12-18T18:06:50.126Z,18.35
2018-12-18T18:09:17.669Z,18.34
2018-12-18T18:11:45.090Z,18.34
2018-12-18T18:14:13.882Z,18.21
2018-12-18T18:16:41.541Z,18.28
2018-12-18T18:19:09.065Z,18.31
2018-12-18T18:21:36.538Z,18.29
2018-12-18T18:24:05.828Z,18.25
2018-12-18T18:26:39.251Z,18.13
2018-12-18T18:29:07.897Z,18.16
2018-12-18T18:31:35.419Z,18.26
2018-12-18T18:34:02.948Z,18.24
2018-12-18T18:36:30.468Z,18.14
2018-12-18T18:38:58.318Z,18.06
2018-12-18T18:41:28.114Z,18.21
2018-12-18T18:43:55.787Z,18.19
2018-12-18T18:46:23.291Z,18.18
2018-12-18T18:48:57.234Z,18.18
2018-12-18T18:51:24.627Z,18.18
2018-12-18T18:53:52.061Z,18.16
2018-12-18T18:56:19.840Z,18.18
2018-12-18T18:58:47.319Z,18.20
2018-12-18T19:01:14.787Z,18.22
2018-12-18T19:03:42.242Z,18.25
2018-12-18T19:06:09.779Z,18.25
2018-12-18T19:08:37.245Z,18.27
2018-12-18T19:11:04.714Z,18.27
2018-12-18T19:13:32.198Z,18.27
2018-12-18T19:15:59.618Z,18.27
2018-12-18T19:18:27.030Z,18.27
2018-12-18T19:20:54.464Z,18.26
2018-12-18T19:23:21.866Z,18.26
2018-12-18T19:25:49.335Z,18.25
2018-12-18T19:28:16.783Z,18.25
2018-12-18T19:30:44.241Z,18.24
2018-12-18T19:33:11.802Z,18.23
2018-12-18T19:35:40.402Z,18.23
2018-12-18T19:38:07.847Z,18.22
2018-12-18T19:40:36.342Z,18.21
2018-12-18T19:43:03.909Z,18.20
2018-12-18T19:45:31.436Z,18.21
2018-12-18T19:47:58.895Z,18.18
2018-12-18T19:50:26.327Z,18.18
2018-12-18T19:52:53.781Z,18.16
2018-12-18T19:55:21.235Z,18.15
2018-12-18T19:57:48.629Z,18.14
2018-12-18T20:00:16.169Z,18.23
2018-12-18T20:02:43.568Z,18.23
2018-12-18T20:05:11.084Z,18.28
2018-12-18T20:07:38.513Z,18.39
2018-12-18T20:10:05.952Z,18.40
2018-12-18T20:12:33.460Z,18.37
2018-12-18T20:15:00.890Z,18.45
2018-12-18T20:17:28.810Z,18.36
2018-12-18T20:19:56.310Z,18.34
2018-12-18T20:22:26.446Z,18.33
2018-12-18T20:24:53.870Z,18.33
2018-12-18T20:27:21.307Z,18.34
2018-12-18T20:29:49.078Z,18.33
2018-12-18T20:32:16.501Z,18.33
2018-12-18T20:34:43.922Z,18.31
2018-12-18T20:37:11.359Z,18.31
2018-12-18T20:39:38.761Z,18.29
2018-12-18T20:42:06.172Z,18.29
2018-12-18T20:44:33.591Z,18.26
2018-12-18T20:47:01.069Z,18.28
2018-12-18T20:49:28.481Z,18.28
2018-12-18T20:51:55.881Z,18.27
2018-12-18T20:54:23.349Z,18.37
2018-12-18T20:56:50.748Z,18.40
2018-12-18T20:59:19.146Z,18.34
2018-12-18T21:01:46.562Z,18.29
2018-12-18T21:04:13.945Z,18.35
2018-12-18T21:06:42.196Z,18.77
2018-12-18T21:09:12.464Z,18.87
2018-12-18T21:11:39.867Z,18.87
2018-12-18T21:14:07.266Z,18.81
2018-12-18T21:16:34.704Z,19.01
2018-12-18T21:19:02.101Z,18.93
2018-12-18T21:21:29.541Z,18.93
2018-12-18T21:23:56.984Z,18.92
2018-12-18T21:26:24.441Z,18.86
2018-12-18T21:28:52.296Z,18.86
2018-12-18T21:31:19.705Z,18.91
2018-12-18T21:33:58.149Z,18.94
2018-12-18T21:36:25.743Z,19.03
2018-12-18T21:38:53.369Z,19.08
2018-12-18T21:41:20.846Z,19.09
2018-12-18T21:43:59.865Z,19.15
2018-12-18T21:46:27.350Z,19.15
2018-12-18T21:48:54.855Z,19.18
2018-12-18T21:51:39.515Z,19.17
2018-12-18T21:54:07.270Z,19.20
2018-12-18T21:56:35.885Z,18.58
2018-12-18T21:59:03.379Z,19.22
2018-12-18T22:01:30.850Z,19.21
2018-12-18T22:03:58.437Z,19.17
2018-12-18T22:06:25.966Z,19.16
2018-12-18T22:08:53.445Z,19.16
2018-12-18T22:11:20.854Z,19.17
2018-12-18T22:13:48.478Z,19.17
2018-12-18T22:16:17.157Z,19.19
2018-12-18T22:18:44.686Z,19.19
2018-12-18T22:21:12.189Z,19.19
2018-12-18T22:23:39.661Z,19.16
2018-12-18T22:26:07.166Z,19.07
2018-12-18T22:28:34.621Z,18.99
2018-12-18T22:31:02.054Z,19.07
2018-12-18T22:33:29.543Z,19.09
2018-12-18T22:35:57.049Z,19.17
2018-12-18T22:38:24.541Z,19.16
2018-12-18T22:40:52.027Z,19.24
2018-12-18T22:43:19.700Z,19.18
2018-12-18T22:45:47.130Z,19.12
2018-12-18T22:48:14.611Z,19.01
2018-12-18T22:50:42.213Z,18.94
2018-12-18T22:53:09.614Z,18.90
2018-12-18T22:55:37.528Z,18.89
2018-12-18T22:58:05.106Z,18.88
2018-12-18T23:00:40.560Z,18.86
2018-12-18T23:03:08.064Z,18.87
2018-12-18T23:05:35.618Z,18.88
2018-12-18T23:08:03.150Z,18.87
2018-12-18T23:10:30.754Z,18.86
2018-12-18T23:12:58.217Z,18.85
2018-12-18T23:15:25.645Z,18.85
2018-12-18T23:17:53.153Z,18.84
2018-12-18T23:20:20.769Z,18.85
2018-12-18T23:22:48.166Z,18.85
2018-12-18T23:25:15.734Z,18.85
2018-12-18T23:27:43.309Z,18.86
2018-12-18T23:30:10.808Z,18.85
2018-12-18T23:32:38.351Z,18.87
2018-12-18T23:35:06.090Z,18.85
2018-12-18T23:37:33.583Z,18.87
2018-12-18T23:40:01.106Z,18.86
2018-12-18T23:42:35.830Z,18.85
2018-12-18T23:45:04.399Z,18.83
2018-12-18T23:47:31.977Z,18.83
2018-12-18T23:49:59.650Z,18.82
2018-12-18T23:52:27.265Z,18.82
2018-12-18T23:54:54.865Z,18.83
2018-12-18T23:57:22.287Z,18.81
2018-12-18T23:59:49.933Z,18.78
